Time;durP1;ratioP1;P1;durP2;ratioP2;P2;SDS_P1;SDS_P2;PMS_P1;PMS_P2;Temp;Humidity;BMP_temperature;BMP_pressure;BME280_temperature;BME280_humidity;BME280_pressure;Samples;Min_cycle;Max_cycle;Signal;HPM_P1;HPM_P2
2023/02/12 00:00:38;;;;;;;93.10;41.07;;;7.60;99.90;;;;;;5013140;28;20034;-59
2023/02/12 00:03:04;;;;;;;86.40;38.80;;;7.50;99.90;;;;;;5012920;28;20034;-60
2023/02/12 00:05:31;;;;;;;86.77;39.33;;;7.60;99.90;;;;;;5012656;28;20033;-59
2023/02/12 00:07:56;;;;;;;85.20;37.43;;;7.60;99.90;;;;;;5012638;28;20312;-58
2023/02/12 00:10:22;;;;;;;80.33;37.60;;;7.60;99.90;;;;;;5012579;28;20113;-59
2023/02/12 00:12:48;;;;;;;89.63;38.93;;;7.70;99.90;;;;;;5012574;28;20538;-59
2023/02/12 00:15:14;;;;;;;88.40;38.77;;;7.70;99.90;;;;;;5012322;28;20071;-59
2023/02/12 00:17:40;;;;;;;81.80;37.47;;;7.70;99.90;;;;;;5012542;28;20057;-59
2023/02/12 00:20:06;;;;;;;81.23;38.57;;;7.70;99.90;;;;;;5012390;28;20034;-59
2023/02/12 00:22:32;;;;;;;83.90;38.43;;;7.70;99.90;;;;;;5012562;28;20431;-59
2023/02/12 00:24:58;;;;;;;87.50;38.23;;;7.70;99.90;;;;;;5012218;28;20109;-59
2023/02/12 00:27:24;;;;;;;82.40;38.33;;;7.70;99.90;;;;;;5012432;28;20382;-58
2023/02/12 00:29:49;;;;;;;83.23;38.07;;;7.70;99.90;;;;;;5012219;28;20034;-59
2023/02/12 00:32:19;;;;;;;77.23;37.07;;;7.70;99.90;;;;;;5011045;28;20145;-59
2023/02/12 00:34:47;;;;;;;;;;;7.70;99.90;;;;;;5012853;28;20033;-59
2023/02/12 00:37:15;;;;;;;76.13;36.43;;;7.70;99.90;;;;;;5011966;28;20434;-59
2023/02/12 00:39:40;;;;;;;85.00;38.40;;;7.70;99.90;;;;;;5010634;28;20129;-59
2023/02/12 00:42:06;;;;;;;83.23;38.13;;;7.80;99.90;;;;;;5012242;28;20090;-59
2023/02/12 00:44:32;;;;;;;85.57;38.27;;;7.70;99.90;;;;;;5012099;28;20113;-59
2023/02/12 00:47:01;;;;;;;77.40;37.47;;;7.70;99.90;;;;;;5011885;28;20582;-59
2023/02/12 00:49:33;;;;;;;82.57;37.90;;;7.70;99.90;;;;;;5011929;28;20076;-59
2023/02/12 00:52:00;;;;;;;84.53;38.43;;;7.70;99.90;;;;;;5010633;28;20044;-59
2023/02/12 00:54:27;;;;;;;88.30;40.07;;;7.70;99.90;;;;;;5011353;28;20072;-59
2023/02/12 00:56:54;;;;;;;89.97;40.50;;;7.70;99.90;;;;;;5011185;28;20038;-59
2023/02/12 00:59:21;;;;;;;87.60;39.43;;;7.60;99.90;;;;;;5010246;28;20454;-59
2023/02/12 01:01:48;;;;;;;87.87;40.37;;;7.60;99.90;;;;;;5011730;28;20152;-58
2023/02/12 01:04:14;;;;;;;85.63;38.23;;;7.60;99.90;;;;;;5011619;28;20570;-58
2023/02/12 01:06:40;;;;;;;89.33;39.67;;;7.50;99.90;;;;;;5011490;28;20117;-58
2023/02/12 01:09:06;;;;;;;83.83;37.70;;;7.60;99.90;;;;;;5011585;28;20033;-58
2023/02/12 01:11:32;;;;;;;81.40;37.93;;;7.60;99.90;;;;;;5011544;28;20061;-58
2023/02/12 01:13:58;;;;;;;88.30;38.87;;;7.60;99.90;;;;;;5010125;28;20084;-58
2023/02/12 01:16:24;;;;;;;84.43;36.93;;;7.50;99.90;;;;;;5011308;28;20038;-58
2023/02/12 01:18:52;;;;;;;84.10;39.23;;;7.60;99.90;;;;;;5011284;28;20406;-57
2023/02/12 01:21:24;;;;;;;78.80;36.33;;;7.60;99.90;;;;;;5010287;28;20034;-59
2023/02/12 01:23:50;;;;;;;80.97;37.87;;;7.60;99.90;;;;;;5011249;28;20470;-58
2023/02/12 01:26:16;;;;;;;87.17;38.23;;;7.60;99.90;;;;;;5011108;28;20105;-58
2023/02/12 01:28:44;;;;;;;82.57;37.57;;;7.60;99.90;;;;;;5011219;28;20053;-59
2023/02/12 01:31:15;;;;;;;86.77;37.93;;;7.60;99.90;;;;;;5011273;28;20482;-58
2023/02/12 01:33:42;;;;;;;81.27;38.20;;;7.60;99.90;;;;;;5009686;28;20037;-58
2023/02/12 01:36:08;;;;;;;86.77;38.67;;;7.60;99.90;;;;;;5011241;28;20034;-58
2023/02/12 01:38:34;;;;;;;87.20;37.67;;;7.50;99.90;;;;;;5010899;28;20108;-58
2023/02/12 01:41:05;;;;;;;81.57;36.83;;;7.50;99.90;;;;;;5011148;28;20042;-58
2023/02/12 01:43:33;;;;;;;86.10;37.63;;;7.50;99.90;;;;;;5010978;28;20430;-58
2023/02/12 01:46:00;;;;;;;80.63;36.60;;;7.50;99.90;;;;;;5011105;28;20026;-58
2023/02/12 01:48:29;;;;;;;81.33;36.73;;;7.50;99.90;;;;;;5010635;28;20026;-58
2023/02/12 01:50:56;;;;;;;83.47;37.60;;;7.50;99.90;;;;;;5011138;28;20041;-59
2023/02/12 01:53:28;;;;;;;76.27;35.97;;;7.50;99.90;;;;;;5009507;28;20022;-59
2023/02/12 01:55:58;;;;;;;80.47;37.13;;;7.50;99.90;;;;;;5010941;28;20030;-59
2023/02/12 01:58:27;;;;;;;82.27;37.23;;;7.50;99.90;;;;;;5009417;28;20033;-59
2023/02/12 02:00:53;;;;;;;76.63;36.40;;;7.50;99.90;;;;;;5010813;28;20087;-59
2023/02/12 02:03:19;;;;;;;82.53;35.97;;;7.50;99.90;;;;;;5009416;28;20030;-59
2023/02/12 02:06:01;;;;;;;82.60;37.97;;;7.50;99.90;;;;;;5009540;28;20462;-59
2023/02/12 02:08:28;;;;;;;83.13;36.57;;;7.50;99.90;;;;;;5009204;28;20494;-59
2023/02/12 02:10:53;;;;;;;81.03;36.27;;;7.50;99.90;;;;;;5010830;28;20454;-59
2023/02/12 02:16:29;;;;;;;77.00;36.77;;;7.50;99.90;;;;;;5010700;28;20066;-59
2023/02/12 02:19:01;;;;;;;86.30;38.33;;;7.50;99.90;;;;;;5010169;28;20042;-59
2023/02/12 02:21:41;;;;;;;82.97;37.07;;;7.50;99.90;;;;;;5010459;28;20030;-58
2023/02/12 02:24:07;;;;;;;82.17;38.57;;;7.40;99.90;;;;;;5010431;28;20026;-59
2023/02/12 02:26:57;;;;;;;79.00;36.50;;;7.40;99.90;;;;;;5010422;28;20083;-59
2023/02/12 02:30:04;;;;;;;79.60;37.07;;;7.40;99.90;;;;;;5010865;28;20053;-58
2023/02/12 02:32:36;;;;;;;82.03;37.50;;;7.40;99.90;;;;;;4989307;28;20088;-58
2023/02/12 02:35:26;;;;;;;88.43;38.43;;;7.40;99.90;;;;;;5010573;28;20026;-58
2023/02/12 02:38:23;;;;;;;84.63;37.57;;;7.40;99.90;;;;;;5009109;28;20105;-58
2023/02/12 02:40:59;;;;;;;80.33;36.93;;;7.40;99.90;;;;;;5010636;28;20402;-59
2023/02/12 02:43:37;;;;;;;77.53;36.43;;;7.30;99.90;;;;;;5010209;28;20576;-59
2023/02/12 02:46:14;;;;;;;82.17;35.97;;;7.30;99.90;;;;;;5010610;28;20022;-59
2023/02/12 02:48:48;;;;;;;82.90;36.20;;;7.30;99.90;;;;;;5010071;28;20026;-60
2023/02/12 02:51:20;;;;;;;78.67;36.70;;;7.30;99.90;;;;;;5010340;28;20038;-59
2023/02/12 02:54:01;;;;;;;89.33;37.13;;;7.30;99.90;;;;;;5010150;28;20038;-58
2023/02/12 02:56:29;;;;;;;79.33;36.10;;;7.40;99.90;;;;;;5010129;28;20037;-58
2023/02/12 02:59:01;;;;;;;87.43;36.43;;;7.30;99.90;;;;;;5010239;28;20042;-58
2023/02/12 03:01:31;;;;;;;84.00;37.63;;;7.30;99.90;;;;;;4992567;28;20038;-59
2023/02/12 03:04:08;;;;;;;83.60;36.33;;;7.30;99.90;;;;;;5010118;28;20561;-59
2023/02/12 03:06:47;;;;;;;77.27;35.37;;;7.20;99.90;;;;;;5010097;28;20571;-59
2023/02/12 03:09:26;;;;;;;85.40;37.45;;;7.20;99.90;;;;;;5010234;28;20041;-58
2023/02/12 03:11:55;;;;;;;;;;;7.30;99.90;;;;;;5011202;28;20099;-59
2023/02/12 03:14:29;;;;;;;80.25;35.17;;;7.30;99.90;;;;;;5010094;28;19913;-59
2023/02/12 03:17:30;;;;;;;82.93;35.23;;;7.20;99.90;;;;;;5010247;28;20041;-59
2023/02/12 03:20:14;;;;;;;86.20;36.77;;;7.20;99.90;;;;;;5013094;28;20042;-59
2023/02/12 03:22:44;;;;;;;84.87;36.93;;;7.20;99.90;;;;;;5013819;28;20034;-59
2023/02/12 03:25:17;;;;;;;83.90;36.70;;;7.20;99.90;;;;;;5013728;28;20034;-59
2023/02/12 03:27:50;;;;;;;84.33;36.17;;;7.20;99.90;;;;;;5013439;28;20076;-59
2023/02/12 03:30:17;;;;;;;89.40;37.43;;;7.20;99.90;;;;;;5013509;28;20033;-59
2023/02/12 03:33:02;;;;;;;83.40;36.13;;;7.20;99.90;;;;;;5013467;28;20029;-59
2023/02/12 03:35:43;;;;;;;83.60;36.53;;;7.20;99.90;;;;;;5013151;28;20022;-58
2023/02/12 03:38:14;;;;;;;84.80;37.03;;;7.20;99.90;;;;;;5013234;28;20399;-58
2023/02/12 03:40:49;;;;;;;83.27;37.27;;;7.10;99.90;;;;;;5013209;28;20376;-59
2023/02/12 03:43:15;;;;;;;78.90;35.23;;;7.10;99.90;;;;;;5013474;28;20042;-58
2023/02/12 03:45:41;;;;;;;79.87;36.17;;;7.20;99.90;;;;;;5013107;28;20025;-58
2023/02/12 03:48:24;;;;;;;84.50;35.83;;;7.10;99.90;;;;;;5013201;28;20037;-58
2023/02/12 03:51:02;;;;;;;82.00;36.03;;;7.10;99.90;;;;;;5013282;28;20109;-59
2023/02/12 03:53:28;;;;;;;85.70;37.60;;;7.10;99.90;;;;;;5013070;28;20041;-58
2023/02/12 03:56:03;;;;;;;83.40;36.07;;;7.10;99.90;;;;;;5013317;28;20491;-58
2023/02/12 04:00:56;;;;;;;84.20;36.53;;;7.10;99.90;;;;;;5029968;28;20064;-54
2023/02/12 04:03:23;;;;;;;83.70;37.57;;;7.10;99.90;;;;;;5032708;28;20033;-56
2023/02/12 04:05:49;;;;;;;84.03;36.30;;;7.10;99.90;;;;;;5032948;28;20104;-53
2023/02/12 04:08:15;;;;;;;79.03;36.33;;;7.10;99.90;;;;;;5032712;28;20169;-56
2023/02/12 04:11:15;;;;;;;82.37;36.57;;;7.10;99.90;;;;;;5032859;28;20029;-55
2023/02/12 04:13:51;;;;;;;83.63;36.30;;;7.10;99.90;;;;;;5015884;28;20045;-55
2023/02/12 04:16:38;;;;;;;88.13;36.43;;;7.10;99.90;;;;;;5032691;28;20033;-55
2023/02/12 04:19:04;;;;;;;88.80;37.10;;;7.10;99.90;;;;;;5031502;28;20393;-54
2023/02/12 04:21:35;;;;;;;83.67;37.43;;;7.10;99.90;;;;;;5032586;28;20163;-54
2023/02/12 04:24:01;;;;;;;85.60;36.87;;;7.10;99.90;;;;;;5032472;28;20079;-55
2023/02/12 04:26:36;;;;;;;81.17;35.70;;;7.10;99.90;;;;;;5032648;28;20030;-55
2023/02/12 04:29:13;;;;;;;83.77;37.13;;;7.10;99.90;;;;;;5032436;28;20022;-55
2023/02/12 04:31:56;;;;;;;85.80;37.67;;;7.10;99.90;;;;;;5031698;28;20026;-56
2023/02/12 04:34:38;;;;;;;83.17;36.10;;;7.10;99.90;;;;;;5032096;28;20406;-55
2023/02/12 04:37:11;;;;;;;83.80;36.63;;;7.10;99.90;;;;;;5032390;28;20052;-55
2023/02/12 04:39:39;;;;;;;84.60;36.63;;;7.10;99.90;;;;;;5030961;28;20176;-56
2023/02/12 04:42:05;;;;;;;86.27;37.53;;;7.10;99.90;;;;;;5032029;28;20040;-56
2023/02/12 04:44:34;;;;;;;78.47;36.23;;;7.10;99.90;;;;;;5031816;28;20428;-55
2023/02/12 04:47:00;;;;;;;83.80;36.57;;;7.10;99.90;;;;;;5031885;28;20445;-55
2023/02/12 04:49:27;;;;;;;86.73;38.30;;;7.10;99.90;;;;;;5032163;28;20116;-56
2023/02/12 04:51:52;;;;;;;84.00;37.37;;;7.10;99.90;;;;;;5031820;28;20029;-54
2023/02/12 04:54:20;;;;;;;84.10;37.67;;;7.10;99.90;;;;;;5031769;28;20041;-54
2023/02/12 04:56:47;;;;;;;82.93;34.93;;;7.10;99.90;;;;;;5031523;28;20038;-57
2023/02/12 04:59:13;;;;;;;85.17;37.67;;;7.10;99.90;;;;;;5031445;28;20472;-54
2023/02/12 05:01:43;;;;;;;88.53;37.70;;;7.10;99.90;;;;;;5031648;28;20396;-54
2023/02/12 05:04:11;;;;;;;86.50;37.05;;;7.10;99.90;;;;;;5031379;28;20076;-55
2023/02/12 05:06:38;;;;;;;84.78;37.65;;;7.00;99.90;;;;;;5031498;28;20387;-56
2023/02/12 05:09:05;;;;;;;88.77;37.73;;;7.00;99.90;;;;;;5031440;28;20037;-55
2023/02/12 05:11:32;;;;;;;93.23;38.90;;;7.00;99.90;;;;;;5031334;28;20485;-56
2023/02/12 05:13:57;;;;;;;85.77;36.43;;;7.00;99.90;;;;;;5031170;28;20052;-55
2023/02/12 05:16:23;;;;;;;88.93;37.87;;;7.00;99.90;;;;;;5031267;28;20489;-55
2023/02/12 05:18:49;;;;;;;86.50;37.83;;;7.00;99.90;;;;;;5031078;28;20486;-56
2023/02/12 05:21:15;;;;;;;79.37;36.87;;;7.00;99.90;;;;;;5031046;28;20037;-54
2023/02/12 05:23:41;;;;;;;80.87;36.50;;;7.00;99.90;;;;;;5030994;28;20105;-56
2023/02/12 05:26:13;;;;;;;85.57;37.00;;;7.00;99.90;;;;;;5031118;28;20120;-55
2023/02/12 05:28:40;;;;;;;91.13;37.63;;;7.10;99.90;;;;;;5030841;28;20034;-55
2023/02/12 05:31:08;;;;;;;85.87;36.70;;;7.00;99.90;;;;;;5031091;28;20048;-55
2023/02/12 05:33:34;;;;;;;81.37;35.40;;;7.00;99.90;;;;;;5030800;28;20044;-56
2023/02/12 05:36:09;;;;;;;84.27;37.00;;;7.00;99.90;;;;;;5030944;28;20033;-56
2023/02/12 05:38:34;;;;;;;85.37;36.37;;;7.00;99.90;;;;;;5030616;28;20041;-56
2023/02/12 05:41:15;;;;;;;82.20;36.70;;;7.00;99.90;;;;;;5030489;28;20029;-56
2023/02/12 05:43:41;;;;;;;86.67;36.00;;;7.00;99.90;;;;;;5030699;28;20033;-55
2023/02/12 05:46:09;;;;;;;86.63;36.87;;;7.10;99.90;;;;;;5029528;28;20454;-50
2023/02/12 05:48:36;;;;;;;86.70;37.57;;;7.00;99.90;;;;;;5030470;28;20025;-55
2023/02/12 05:51:27;;;;;;;84.57;37.10;;;7.00;99.90;;;;;;5030786;28;20029;-56
2023/02/12 05:54:02;;;;;;;84.00;37.03;;;7.00;99.90;;;;;;5028424;28;20037;-55
2023/02/12 05:56:40;;;;;;;84.17;36.90;;;7.00;99.90;;;;;;5030618;28;20061;-56
2023/02/12 05:59:11;;;;;;;82.60;35.57;;;7.00;99.90;;;;;;5030592;28;20398;-56
2023/02/12 06:01:43;;;;;;;83.73;37.37;;;7.00;99.90;;;;;;5030447;28;20113;-56
2023/02/12 06:04:19;;;;;;;87.83;36.93;;;7.00;99.90;;;;;;5030349;28;20029;-56
2023/02/12 06:06:45;;;;;;;81.23;37.07;;;7.00;99.90;;;;;;5030450;28;20263;-55
2023/02/12 06:09:12;;;;;;;84.70;36.43;;;7.00;99.90;;;;;;5030535;28;20144;-56
2023/02/12 06:11:38;;;;;;;85.00;35.10;;;6.90;99.90;;;;;;5030607;28;20112;-55
2023/02/12 06:14:06;;;;;;;94.30;37.77;;;6.90;99.90;;;;;;5029279;28;20406;-55
2023/02/12 06:16:32;;;;;;;86.00;35.93;;;6.80;99.90;;;;;;5030488;28;20064;-55
2023/02/12 06:19:01;;;;;;;85.43;36.03;;;6.90;99.90;;;;;;5030275;28;20060;-54
2023/02/12 06:21:28;;;;;;;85.20;35.08;;;6.90;99.90;;;;;;5030420;28;20091;-54
2023/02/12 06:23:54;;;;;;;81.50;35.87;;;6.90;99.90;;;;;;5030204;28;20390;-55
2023/02/12 06:26:20;;;;;;;87.40;36.13;;;6.90;99.90;;;;;;5030039;28;20022;-56
2023/02/12 06:28:46;;;;;;;84.30;36.50;;;6.90;99.90;;;;;;5030142;28;20429;-55
2023/02/12 06:31:27;;;;;;;88.87;36.57;;;7.00;99.90;;;;;;5030432;28;20406;-56
2023/02/12 06:33:55;;;;;;;85.03;37.27;;;6.90;99.90;;;;;;5030109;28;20033;-55
2023/02/12 06:36:21;;;;;;;89.07;37.10;;;7.00;99.90;;;;;;5030047;28;20029;-53
2023/02/12 06:38:47;;;;;;;81.77;35.60;;;7.00;99.90;;;;;;5030159;28;20168;-55
2023/02/12 06:41:13;;;;;;;88.93;36.43;;;7.00;99.90;;;;;;5029952;28;20419;-56
2023/02/12 06:43:39;;;;;;;82.50;36.57;;;6.90;99.90;;;;;;5030099;28;20030;-55
2023/02/12 06:46:06;;;;;;;88.00;37.50;;;7.00;99.90;;;;;;5030163;28;20389;-56
2023/02/12 06:48:31;;;;;;;77.90;34.13;;;7.00;99.90;;;;;;5029931;28;20109;-54
2023/02/12 06:51:20;;;;;;;86.10;37.60;;;7.00;99.90;;;;;;5030176;28;20116;-55
2023/02/12 06:53:47;;;;;;;80.25;35.65;;;7.00;99.90;;;;;;5031428;28;20425;-55
2023/02/12 06:56:13;;;;;;;88.00;35.57;;;7.00;99.90;;;;;;5034115;28;20120;-56
2023/02/12 06:58:41;;;;;;;88.13;36.33;;;7.00;99.90;;;;;;5033469;28;20038;-54
2023/02/12 07:01:16;;;;;;;82.73;36.97;;;7.00;99.90;;;;;;5033812;28;20148;-55
2023/02/12 07:03:54;;;;;;;86.43;37.27;;;7.00;99.90;;;;;;5033597;28;20485;-56
2023/02/12 07:06:20;;;;;;;85.40;35.33;;;7.00;99.90;;;;;;5033485;28;20037;-56
2023/02/12 07:08:46;;;;;;;88.97;36.37;;;7.10;99.90;;;;;;5033529;28;20120;-55
2023/02/12 07:11:12;;;;;;;82.93;37.13;;;7.10;99.90;;;;;;5033655;28;20037;-54
2023/02/12 07:13:40;;;;;;;84.00;38.20;;;7.00;99.90;;;;;;5033482;28;20084;-56
2023/02/12 07:16:08;;;;;;;87.97;39.33;;;7.10;99.90;;;;;;5033617;28;20041;-56
2023/02/12 07:18:35;;;;;;;82.37;36.30;;;7.10;99.90;;;;;;5033251;28;20325;-54
2023/02/12 07:21:01;;;;;;;80.17;35.53;;;7.10;99.90;;;;;;5033372;28;20505;-53
2023/02/12 07:23:27;;;;;;;84.23;35.90;;;7.10;99.90;;;;;;5033261;28;20439;-53
2023/02/12 07:25:55;;;;;;;82.40;35.67;;;7.10;99.90;;;;;;5033433;28;20029;-55
2023/02/12 07:28:20;;;;;;;77.70;35.50;;;7.10;99.90;;;;;;5033116;28;20025;-56
2023/02/12 07:30:46;;;;;;;84.03;36.67;;;7.10;99.90;;;;;;5033231;28;20478;-56
2023/02/12 07:33:12;;;;;;;82.23;35.13;;;7.10;99.90;;;;;;5033178;28;20061;-53
2023/02/12 07:35:37;;;;;;;81.67;36.13;;;7.10;99.90;;;;;;5033425;28;20068;-54
2023/02/12 07:38:03;;;;;;;86.93;37.33;;;7.10;99.90;;;;;;5032929;28;20064;-56
2023/02/12 07:40:29;;;;;;;84.27;34.90;;;7.20;99.90;;;;;;5033086;28;20040;-55
2023/02/12 07:42:55;;;;;;;80.53;35.10;;;7.20;99.90;;;;;;5033179;28;20025;-56
2023/02/12 07:45:21;;;;;;;77.67;34.47;;;7.20;99.90;;;;;;5032791;28;20025;-55
2023/02/12 07:47:47;;;;;;;81.23;36.03;;;7.20;99.90;;;;;;5032602;28;20022;-55
2023/02/12 07:50:13;;;;;;;83.57;36.90;;;7.20;99.90;;;;;;5032804;28;20523;-55
2023/02/12 07:52:38;;;;;;;82.67;36.27;;;7.10;99.90;;;;;;5032954;28;20112;-53
2023/02/12 07:55:04;;;;;;;88.90;36.63;;;7.10;99.90;;;;;;5032712;28;20598;-55
2023/02/12 07:57:30;;;;;;;78.33;36.07;;;7.10;99.90;;;;;;5032682;28;20498;-55
2023/02/12 07:59:56;;;;;;;83.80;35.97;;;7.10;99.90;;;;;;5032489;28;20083;-55
2023/02/12 08:02:24;;;;;;;77.40;35.80;;;7.10;99.90;;;;;;5032512;28;20039;-54
2023/02/12 08:04:55;;;;;;;79.20;36.87;;;7.20;99.90;;;;;;5032191;28;20026;-56
2023/02/12 08:07:20;;;;;;;78.67;35.67;;;7.30;99.90;;;;;;5032601;28;20042;-55
2023/02/12 08:09:46;;;;;;;85.57;36.53;;;7.30;99.90;;;;;;5032685;28;20036;-55
2023/02/12 08:12:12;;;;;;;77.07;35.43;;;7.30;99.90;;;;;;5032574;28;20029;-54
2023/02/12 08:14:37;;;;;;;78.83;36.07;;;7.40;99.90;;;;;;5032301;28;20034;-54
2023/02/12 08:17:03;;;;;;;77.30;34.33;;;7.40;99.90;;;;;;5032058;28;20394;-56
2023/02/12 08:19:29;;;;;;;80.07;35.90;;;7.50;99.90;;;;;;5032407;28;20087;-55
2023/02/12 08:21:55;;;;;;;82.73;36.43;;;7.50;99.90;;;;;;5032478;28;20034;-55
2023/02/12 08:24:22;;;;;;;78.30;35.27;;;7.50;99.90;;;;;;5032273;28;20033;-52
2023/02/12 08:26:48;;;;;;;80.73;35.77;;;7.50;99.90;;;;;;5032072;28;20036;-54
2023/02/12 08:29:17;;;;;;;82.23;35.63;;;7.60;99.90;;;;;;5032108;28;20048;-53
2023/02/12 08:31:45;;;;;;;80.90;37.15;;;7.60;99.90;;;;;;5032041;28;20071;-53
2023/02/12 08:34:20;;;;;;;76.27;37.07;;;7.50;99.90;;;;;;5031877;28;20029;-53
2023/02/12 08:36:47;;;;;;;85.87;36.33;;;7.60;99.90;;;;;;5031956;28;20040;-55
2023/02/12 08:39:14;;;;;;;77.37;34.93;;;7.50;99.90;;;;;;5031970;28;20029;-54
2023/02/12 08:41:41;;;;;;;80.83;36.47;;;7.60;99.90;;;;;;5031843;28;20429;-53
2023/02/12 08:44:07;;;;;;;81.27;37.30;;;7.60;99.90;;;;;;5031644;28;20467;-53
2023/02/12 08:46:38;;;;;;;83.33;39.63;;;7.70;99.90;;;;;;5031878;28;20037;-54
2023/02/12 08:49:08;;;;;;;82.60;37.10;;;7.60;99.90;;;;;;5031761;28;20412;-56
2023/02/12 08:51:36;;;;;;;84.43;38.03;;;7.70;99.90;;;;;;5031874;28;20040;-55
2023/02/12 08:54:06;;;;;;;108.90;48.37;;;7.80;99.90;;;;;;5030205;28;20037;-55
2023/02/12 08:56:32;;;;;;;94.72;44.13;;;7.90;99.90;;;;;;5031412;28;20049;-54
2023/02/12 08:59:00;;;;;;;91.10;42.17;;;7.90;99.90;;;;;;5031351;28;20056;-55
2023/02/12 09:01:28;;;;;;;91.63;43.20;;;8.00;99.90;;;;;;5031736;28;20205;-56
2023/02/12 09:03:54;;;;;;;84.07;39.97;;;8.00;99.90;;;;;;5031353;28;20079;-57
2023/02/12 09:06:23;;;;;;;86.07;39.63;;;8.10;99.90;;;;;;5031319;28;20037;-56
2023/02/12 09:08:49;;;;;;;86.30;39.03;;;8.10;99.90;;;;;;5031374;28;20371;-56
2023/02/12 09:11:18;;;;;;;73.17;35.10;;;8.20;99.90;;;;;;5031174;28;20033;-56
2023/02/12 09:13:45;;;;;;;76.07;37.70;;;8.30;99.90;;;;;;5031276;28;20116;-56
2023/02/12 09:16:11;;;;;;;75.97;37.20;;;8.30;99.90;;;;;;5030636;28;20105;-55
2023/02/12 09:18:37;;;;;;;77.80;36.30;;;8.50;99.90;;;;;;5031016;28;20593;-57
2023/02/12 09:21:06;;;;;;;77.73;36.67;;;8.50;99.90;;;;;;5031164;28;20038;-54
2023/02/12 09:23:32;;;;;;;71.07;34.20;;;8.50;99.90;;;;;;5031069;28;20449;-54
2023/02/12 09:25:58;;;;;;;73.07;35.80;;;8.60;99.90;;;;;;5031027;28;20429;-55
2023/02/12 09:28:24;;;;;;;74.27;34.50;;;8.60;99.90;;;;;;5031002;28;20030;-54
2023/02/12 09:30:50;;;;;;;73.53;34.43;;;8.70;99.90;;;;;;5031008;28;20036;-54
2023/02/12 09:33:16;;;;;;;67.67;33.17;;;8.90;99.90;;;;;;5031059;28;20064;-54
2023/02/12 09:35:42;;;;;;;67.07;33.77;;;9.00;99.90;;;;;;5031155;28;20432;-56
2023/02/12 09:38:08;;;;;;;71.40;34.93;;;9.10;99.90;;;;;;5030840;28;20025;-56
2023/02/12 09:40:45;;;;;;;68.60;34.40;;;9.00;99.90;;;;;;5030686;28;20681;-54
2023/02/12 09:43:19;;;;;;;63.83;33.03;;;9.10;99.90;;;;;;5030730;28;20033;-55
2023/02/12 09:46:05;;;;;;;62.13;32.77;;;9.20;99.90;;;;;;5030740;28;20029;-54
2023/02/12 09:48:46;;;;;;;65.63;33.60;;;9.40;99.90;;;;;;5022403;28;20486;-57
2023/02/12 09:51:12;;;;;;;61.57;31.97;;;9.50;99.90;;;;;;5030698;28;20037;-56
2023/02/12 09:53:45;;;;;;;66.73;34.37;;;9.60;99.90;;;;;;5030842;28;20040;-55
2023/02/12 09:56:21;;;;;;;65.20;32.50;;;9.70;99.90;;;;;;5030723;28;20044;-56
2023/02/12 10:01:38;;;;;;;61.20;32.23;;;9.80;99.90;;;;;;4989242;28;20069;-57
2023/02/12 10:04:05;;;;;;;60.03;29.80;;;9.90;99.90;;;;;;4991215;28;20438;-57
2023/02/12 10:06:39;;;;;;;60.93;32.40;;;10.00;99.90;;;;;;4990963;28;20038;-57
2023/02/12 10:09:23;;;;;;;58.23;30.73;;;9.90;99.90;;;;;;4991015;28;20065;-57
2023/02/12 10:12:06;;;;;;;52.77;28.10;;;9.60;99.90;;;;;;4991071;28;20038;-58
2023/02/12 10:15:04;;;;;;;51.93;28.80;;;9.70;99.90;;;;;;4991073;28;20046;-58
2023/02/12 10:17:41;;;;;;;48.92;26.88;;;9.70;99.90;;;;;;4991012;28;20403;-58
2023/02/12 10:20:22;;;;;;;54.23;29.20;;;9.60;99.90;;;;;;4990895;28;20022;-58
2023/02/12 10:23:03;;;;;;;54.10;29.03;;;9.70;99.90;;;;;;4991371;28;20269;-58
2023/02/12 10:25:55;;;;;;;56.57;28.40;;;9.90;99.90;;;;;;4990597;28;20489;-58
2023/02/12 10:28:47;;;;;;;54.37;28.43;;;10.10;99.90;;;;;;4975632;28;20096;-58
2023/02/12 10:31:25;;;;;;;51.63;28.13;;;10.10;99.90;;;;;;4993089;28;20050;-58
2023/02/12 10:33:53;;;;;;;52.03;29.13;;;10.20;99.90;;;;;;4994974;28;20041;-58
2023/02/12 10:36:18;;;;;;;52.70;27.97;;;10.30;99.90;;;;;;4994638;28;20072;-58
2023/02/12 10:38:50;;;;;;;54.40;29.70;;;10.30;99.90;;;;;;4994716;28;20122;-57
2023/02/12 10:41:16;;;;;;;51.27;29.13;;;10.40;99.90;;;;;;4994646;28;20472;-58
2023/02/12 10:43:42;;;;;;;58.60;30.00;;;10.40;99.90;;;;;;4994586;28;20040;-57
2023/02/12 10:46:15;;;;;;;54.90;29.13;;;10.20;99.90;;;;;;4994729;28;20038;-57
2023/02/12 10:48:45;;;;;;;53.07;28.87;;;10.00;99.90;;;;;;4994499;28;20027;-57
2023/02/12 10:52:02;;;;;;;52.63;27.27;;;10.00;99.90;;;;;;4994614;28;20085;-57
2023/02/12 10:54:31;;;;;;;51.03;26.83;;;9.90;99.90;;;;;;4952994;29;20126;-58
2023/02/12 10:56:58;;;;;;;49.92;26.90;;;9.90;99.90;;;;;;4953022;29;20035;-58
2023/02/12 10:59:24;;;;;;;45.87;25.70;;;10.10;99.90;;;;;;4973049;28;20103;-58
2023/02/12 11:01:50;;;;;;;49.53;27.90;;;10.30;99.90;;;;;;4994389;28;20041;-58
2023/02/12 11:04:31;;;;;;;59.33;30.20;;;10.40;99.90;;;;;;4994254;28;20088;-58
2023/02/12 11:07:06;;;;;;;55.33;29.87;;;10.50;99.90;;;;;;4994144;28;20022;-58
2023/02/12 11:09:47;;;;;;;53.07;28.50;;;10.30;99.90;;;;;;4994028;28;20068;-58
2023/02/12 11:12:34;;;;;;;56.43;29.90;;;10.40;99.90;;;;;;4994152;28;20109;-58
2023/02/12 11:15:13;;;;;;;56.80;29.63;;;10.30;99.90;;;;;;4994199;28;20034;-59
2023/02/12 11:17:59;;;;;;;59.53;31.05;;;10.20;99.90;;;;;;4994107;28;20046;-58
2023/02/12 11:20:40;;;;;;;59.63;30.67;;;10.10;99.90;;;;;;4993833;28;20042;-58
2023/02/12 11:23:24;;;;;;;59.43;29.53;;;10.00;99.90;;;;;;4994040;28;20034;-58
2023/02/12 11:25:59;;;;;;;52.20;29.03;;;10.10;99.90;;;;;;4993987;28;20023;-58
2023/02/12 11:28:25;;;;;;;50.37;28.37;;;10.10;99.90;;;;;;4993672;28;20105;-58
2023/02/12 11:31:01;;;;;;;57.67;28.97;;;10.10;99.90;;;;;;4993781;28;20114;-58
2023/02/12 11:33:34;;;;;;;54.90;28.60;;;10.20;99.90;;;;;;4993788;28;20034;-58
2023/02/12 11:36:12;;;;;;;52.13;29.50;;;10.30;99.90;;;;;;4993867;28;20110;-58
2023/02/12 11:38:48;;;;;;;52.88;28.10;;;10.40;99.90;;;;;;4993300;28;20038;-58
2023/02/12 11:41:38;;;;;;;54.73;28.03;;;10.30;99.90;;;;;;4993418;28;20540;-58
2023/02/12 11:44:28;;;;;;;55.67;27.53;;;10.30;99.90;;;;;;4993587;28;20037;-58
2023/02/12 11:47:05;;;;;;;54.27;28.10;;;10.30;99.90;;;;;;4993561;28;20165;-58
2023/02/12 11:49:38;;;;;;;50.63;27.23;;;10.30;99.90;;;;;;4993428;28;20062;-58
2023/02/12 11:52:05;;;;;;;53.07;28.87;;;10.20;99.90;;;;;;4993537;28;20030;-58
2023/02/12 11:54:41;;;;;;;50.17;27.80;;;10.20;99.90;;;;;;4993234;28;20039;-58
2023/02/12 11:57:29;;;;;;;51.47;28.27;;;10.20;99.90;;;;;;4993244;28;20034;-58
2023/02/12 11:59:57;;;;;;;51.42;28.40;;;10.10;99.90;;;;;;4993152;28;20038;-58
2023/02/12 12:02:34;;;;;;;52.63;27.97;;;10.00;99.90;;;;;;4993289;28;20093;-58
2023/02/12 12:05:12;;;;;;;48.03;26.73;;;10.00;99.90;;;;;;4993324;28;20030;-58
2023/02/12 12:07:42;;;;;;;52.67;27.93;;;10.10;99.90;;;;;;4993104;28;20480;-58
2023/02/12 12:10:14;;;;;;;48.47;26.70;;;10.20;99.90;;;;;;4993106;28;20125;-58
2023/02/12 12:12:49;;;;;;;51.37;27.87;;;10.20;99.90;;;;;;4993101;28;20058;-58
2023/02/12 12:21:24;;;;;;;51.00;27.03;;;10.30;99.90;;;;;;4992789;28;20045;-58
2023/02/12 12:23:58;;;;;;;55.10;28.60;;;10.40;99.90;;;;;;4992738;28;20080;-58
2023/02/12 12:26:28;;;;;;;52.60;27.53;;;10.40;99.90;;;;;;4992776;28;20034;-59
2023/02/12 12:29:05;;;;;;;48.33;27.30;;;10.40;99.90;;;;;;4992866;28;20053;-58
2023/02/12 12:31:33;;;;;;;51.63;28.33;;;10.30;99.90;;;;;;4993083;28;20045;-58
2023/02/12 12:34:09;;;;;;;50.43;28.60;;;10.40;99.90;;;;;;4992729;28;20051;-58
2023/02/12 12:36:53;;;;;;;55.50;28.77;;;10.40;99.90;;;;;;4992545;28;20398;-58
2023/02/12 12:39:45;;;;;;;53.80;29.27;;;10.40;99.90;;;;;;4992519;28;20475;-58
2023/02/12 12:42:32;;;;;;;51.23;27.40;;;10.20;99.90;;;;;;4992605;28;20037;-58
2023/02/12 12:45:03;;;;;;;53.50;28.90;;;10.20;99.90;;;;;;4992583;28;20392;-58
2023/02/12 12:47:43;;;;;;;51.77;28.90;;;10.20;99.90;;;;;;4992256;28;20022;-58
2023/02/12 12:50:12;;;;;;;54.10;29.00;;;10.20;99.90;;;;;;4992286;28;20130;-58
2023/02/12 12:53:16;;;;;;;52.00;28.25;;;10.20;99.90;;;;;;4991622;28;20113;-57
2023/02/12 12:56:07;;;;;;;53.03;27.97;;;10.20;99.90;;;;;;4984613;28;20038;-57
2023/02/12 12:58:50;;;;;;;54.07;29.37;;;10.30;99.90;;;;;;4992300;28;20068;-58
2023/02/12 13:01:36;;;;;;;56.13;29.10;;;10.30;99.90;;;;;;4991838;28;20038;-58
2023/02/12 13:04:11;;;;;;;63.83;31.07;;;10.30;99.90;;;;;;4991882;28;20069;-58
2023/02/12 13:06:59;;;;;;;53.30;28.40;;;10.30;99.90;;;;;;4992301;28;20459;-57
2023/02/12 13:09:36;;;;;;;51.83;28.13;;;10.20;99.90;;;;;;4992013;28;20026;-58
2023/02/12 13:12:34;;;;;;;48.90;27.03;;;10.20;99.90;;;;;;4992042;28;20085;-58